Killeen, TX

8:52 AM CDT on August 28, 2016 (GMT -0500)
LCRA | | Change Station

Elev 1411 ft 30.98 °N, 98.33 °W | Updated 42 minutes ago

Clear
Clear
70.0 °F
Feels Like 70.0 °F
N
0.0
Wind Variable Wind from North
Gusts 0.0 mph

Today
High -- | Low -- °F
--% Chance of Precip.
Yesterday
High -- | Low -- °F
Precip. -- in
Pressure 30.03 in
Visibility 8.0 miles
Clouds Clear
Dew Point 70.0 °F
Humidity 100%
Rainfall in
Snow Depth Not available.
7:06 AM 7:59 PM
Waning Crescent, 15% visible
METAR KGRK 281258Z AUTO 00000KT 8SM CLR 22/21 A3006 RMK AO2 VIS 1 1/2 RWY33 SLP169 T02180206
Pressure 30.03 in
Visibility 8.0 miles
Clouds Clear
Dew Point 70.0 °F
Humidity 100%
Rainfall in
Snow Depth Not available.
7:06 AM 7:59 PM
Waning Crescent, 15% visible
METAR KGRK 281258Z AUTO 00000KT 8SM CLR 22/21 A3006 RMK AO2 VIS 1 1/2 RWY33 SLP169 T02180206

10-Day Weather Forecast

Almanac

Astronomy

Aug. 28, 2016 Rise Set
Actual Time
Civil Twilight
Nautical Twilight
Astronomical Twilight
Moon
Length of Visible Light
Length of Day
Tomorrow will be .
, % of the Moon is Illuminated

Today's Extremes

State Highs State Lows

Community

WunderPhotos

Upload Photos

1,935,567 photos uploaded!

WunderBlog® & News

Nearby

Air Quality

  Air Quality AQ Index Pollutant
Not available.

Snow Depth

Station Depth Elevation

Earthquake Activity

City Distance Mag. Time & Date
Minimum magnitude displayed is 2.5.

Coastal Water Temperatures

Place Temperature

Stations

Nearby Weather Stations

Station Location Temp. Windchill Dew Point Humidity Wind Precip. Elev Updated Type
                   

Watches & Warnings

There are currently no watches in effect.